createdAt,value
2019-02-20T00:00:24.708Z,6.08
2019-02-20T00:02:55.727Z,6.13
2019-02-20T00:05:26.502Z,6.16
2019-02-20T00:07:58.605Z,6.12
2019-02-20T00:10:29.209Z,6.13
2019-02-20T00:13:06.221Z,6.15
2019-02-20T00:15:39.400Z,6.21
2019-02-20T00:18:08.726Z,6.19
2019-02-20T00:20:37.616Z,6.17
2019-02-20T00:23:09.291Z,6.09
2019-02-20T00:25:39.352Z,6.11
2019-02-20T00:28:11.043Z,6.07
2019-02-20T00:30:43.929Z,6.11
2019-02-20T00:33:12.806Z,6.06
2019-02-20T00:35:47.370Z,6.05
2019-02-20T00:38:18.346Z,6.05
2019-02-20T00:40:46.892Z,6.06
2019-02-20T00:43:15.798Z,6.07
2019-02-20T00:46:08.434Z,6.06
2019-02-20T00:48:46.114Z,6.04
2019-02-20T00:51:29.336Z,6.04
2019-02-20T00:54:02.731Z,6.05
2019-02-20T00:56:35.228Z,6.11
2019-02-20T00:59:04.610Z,6.08
2019-02-20T01:01:36.993Z,6.09
2019-02-20T01:04:09.780Z,6.11
2019-02-20T01:06:38.699Z,6.11
2019-02-20T01:09:09.076Z,6.06
2019-02-20T01:11:40.880Z,6.07
2019-02-20T01:14:13.181Z,6.08
2019-02-20T01:16:45.528Z,6.06
2019-02-20T01:19:14.285Z,6.10
2019-02-20T01:21:43.205Z,6.11
2019-02-20T01:24:17.374Z,6.04
2019-02-20T01:26:46.292Z,6.12
2019-02-20T01:29:15.052Z,6.11
2019-02-20T01:31:51.846Z,6.10
2019-02-20T01:34:24.214Z,6.09
2019-02-20T01:36:53.139Z,6.12
2019-02-20T01:39:25.574Z,6.10
2019-02-20T01:41:59.243Z,6.09
2019-02-20T01:44:27.326Z,6.06
2019-02-20T01:46:57.535Z,6.03
2019-02-20T01:49:27.736Z,5.98
2019-02-20T01:51:56.904Z,6.05
2019-02-20T01:54:35.200Z,6.11
2019-02-20T01:57:07.227Z,6.09
2019-02-20T01:59:36.156Z,6.09
2019-02-20T02:02:05.591Z,6.10
2019-02-20T02:04:38.917Z,6.09
2019-02-20T02:07:07.887Z,6.06
2019-02-20T02:09:40.325Z,6.10
2019-02-20T02:12:10.560Z,6.07
2019-02-20T02:14:42.742Z,6.13
2019-02-20T02:17:16.727Z,6.12
2019-02-20T02:19:48.717Z,6.06
2019-02-20T02:22:17.316Z,6.06
2019-02-20T02:24:46.292Z,6.04
2019-02-20T02:27:22.879Z,6.06
2019-02-20T02:29:58.074Z,6.06
2019-02-20T02:32:27.115Z,6.14
2019-02-20T02:35:00.722Z,6.13
2019-02-20T02:37:29.992Z,6.16
2019-02-20T02:39:59.226Z,6.16
2019-02-20T02:42:28.792Z,6.18
2019-02-20T02:45:02.337Z,6.18
2019-02-20T02:47:36.303Z,6.17
2019-02-20T02:50:04.940Z,6.20
2019-02-20T02:52:33.909Z,6.22
2019-02-20T02:55:05.856Z,6.23
2019-02-20T02:57:39.497Z,6.23
2019-02-20T03:00:09.791Z,6.19
2019-02-20T03:02:38.477Z,6.21
2019-02-20T03:05:11.758Z,6.22
2019-02-20T03:07:42.391Z,6.20
2019-02-20T03:10:14.589Z,6.21
2019-02-20T03:12:46.678Z,6.18
2019-02-20T03:15:17.608Z,6.19
2019-02-20T03:17:47.286Z,6.18
2019-02-20T03:20:17.920Z,6.22
2019-02-20T03:22:49.758Z,6.22
2019-02-20T03:25:19.102Z,6.24
2019-02-20T03:27:50.925Z,6.23
2019-02-20T03:30:23.519Z,6.24
2019-02-20T03:32:57.365Z,6.28
2019-02-20T03:35:29.525Z,6.35
2019-02-20T03:38:03.084Z,6.28
2019-02-20T03:40:36.843Z,6.30
2019-02-20T03:43:05.571Z,6.27
2019-02-20T03:45:34.213Z,6.29
2019-02-20T03:48:08.384Z,6.30
2019-02-20T03:50:38.543Z,6.32
2019-02-20T03:53:10.898Z,6.39
2019-02-20T03:55:43.384Z,6.33
2019-02-20T03:58:12.650Z,6.34
2019-02-20T04:00:43.216Z,6.34
2019-02-20T04:03:15.254Z,6.35
2019-02-20T04:05:46.015Z,6.33
2019-02-20T04:08:15.864Z,6.36
2019-02-20T04:10:47.605Z,6.41
2019-02-20T04:13:22.585Z,6.36
2019-02-20T04:15:54.575Z,6.36
2019-02-20T04:18:25.764Z,6.37
2019-02-20T04:20:57.821Z,6.31
2019-02-20T04:23:30.746Z,6.31
2019-02-20T04:26:09.853Z,6.35
2019-02-20T04:28:39.815Z,6.34
2019-02-20T04:31:10.430Z,6.37
2019-02-20T04:33:41.391Z,6.30
2019-02-20T04:36:14.160Z,6.34
2019-02-20T04:38:42.976Z,6.31
2019-02-20T04:41:13.856Z,6.29
2019-02-20T04:43:47.333Z,6.25
2019-02-20T04:46:16.977Z,6.23
2019-02-20T04:48:47.760Z,6.13
2019-02-20T04:51:24.122Z,6.11
2019-02-20T04:53:53.186Z,6.00
2019-02-20T04:56:22.380Z,6.03
2019-02-20T04:58:58.565Z,6.05
2019-02-20T05:01:29.741Z,6.04
2019-02-20T05:03:58.288Z,6.05
2019-02-20T05:06:26.879Z,6.09
2019-02-20T05:08:59.284Z,6.10
2019-02-20T05:11:31.826Z,6.09
2019-02-20T05:14:02.516Z,6.07
2019-02-20T05:16:32.768Z,6.01
2019-02-20T05:19:09.807Z,5.98
2019-02-20T05:21:42.430Z,5.99
2019-02-20T05:24:11.332Z,5.94
2019-02-20T05:26:42.270Z,5.92
2019-02-20T05:29:11.361Z,5.96
2019-02-20T05:31:45.200Z,5.99
2019-02-20T05:34:14.155Z,5.98
2019-02-20T05:36:42.705Z,6.03
2019-02-20T05:39:12.904Z,6.05
2019-02-20T05:41:43.352Z,6.08
2019-02-20T05:44:15.973Z,6.12
2019-02-20T05:46:46.624Z,6.04
2019-02-20T05:49:15.682Z,6.05
2019-02-20T05:51:48.103Z,6.01
2019-02-20T05:54:22.556Z,5.99
2019-02-20T05:56:54.765Z,6.11
2019-02-20T05:59:28.249Z,6.06
2019-02-20T06:01:58.797Z,6.00
2019-02-20T06:04:29.415Z,5.99
2019-02-20T06:06:58.524Z,5.99
2019-02-20T06:09:31.418Z,6.01
2019-02-20T06:12:03.618Z,6.01
2019-02-20T06:14:37.723Z,6.01
2019-02-20T06:17:09.768Z,5.97
2019-02-20T06:19:40.395Z,5.94
2019-02-20T06:22:15.241Z,5.95
2019-02-20T06:24:50.254Z,5.91
2019-02-20T06:27:20.939Z,5.95
2019-02-20T06:29:49.893Z,5.97
2019-02-20T06:32:24.001Z,5.96
2019-02-20T06:35:37.227Z,5.94
2019-02-20T06:38:36.596Z,5.94
2019-02-20T06:41:53.051Z,5.86
2019-02-20T06:44:58.657Z,5.82
2019-02-20T06:47:53.758Z,5.77
2019-02-20T06:51:04.566Z,5.72
2019-02-20T06:54:05.826Z,5.74
2019-02-20T06:56:54.619Z,5.71
2019-02-20T06:59:23.556Z,5.73
2019-02-20T07:01:56.387Z,5.75
2019-02-20T07:04:25.244Z,5.81
2019-02-20T07:07:37.315Z,5.83
2019-02-20T07:10:51.920Z,5.82
2019-02-20T07:13:43.963Z,5.81
2019-02-20T07:17:03.085Z,5.86
2019-02-20T07:20:13.679Z,5.89
2019-02-20T07:22:50.617Z,5.94
2019-02-20T07:25:28.705Z,5.92
2019-02-20T07:28:27.940Z,5.99
2019-02-20T07:30:58.912Z,5.97
2019-02-20T07:33:31.830Z,6.01
2019-02-20T07:36:02.033Z,6.00
2019-02-20T07:38:32.877Z,6.06
2019-02-20T07:41:03.256Z,6.15
2019-02-20T07:43:34.939Z,6.21
2019-02-20T07:46:03.646Z,6.34
2019-02-20T07:48:32.717Z,6.44
2019-02-20T07:51:01.516Z,6.57
2019-02-20T07:53:31.572Z,6.61
2019-02-20T07:56:00.134Z,6.63
2019-02-20T07:58:30.694Z,6.64
2019-02-20T08:00:59.647Z,6.68
2019-02-20T08:03:31.939Z,6.70
2019-02-20T08:06:02.569Z,6.65
2019-02-20T08:08:32.495Z,6.66
2019-02-20T08:11:02.160Z,6.74
2019-02-20T08:13:39.088Z,6.79
2019-02-20T08:16:05.519Z,6.83
2019-02-20T08:18:35.765Z,6.81
2019-02-20T08:21:04.721Z,6.87
2019-02-20T08:23:37.891Z,6.94
2019-02-20T08:26:08.079Z,6.97
2019-02-20T08:28:38.228Z,7.01
2019-02-20T08:31:06.782Z,7.13
2019-02-20T08:33:36.708Z,7.19
2019-02-20T08:36:05.850Z,7.19
2019-02-20T08:38:34.433Z,7.26
2019-02-20T08:41:03.128Z,7.26
2019-02-20T08:43:33.783Z,7.32
2019-02-20T08:46:04.087Z,7.42
2019-02-20T08:48:33.175Z,7.42
2019-02-20T08:51:02.027Z,7.48
2019-02-20T08:53:30.771Z,7.52
2019-02-20T08:56:04.377Z,7.53
2019-02-20T08:58:33.864Z,7.63
2019-02-20T09:01:06.097Z,7.74
2019-02-20T09:03:35.346Z,7.74
2019-02-20T09:06:04.610Z,7.90
2019-02-20T09:08:33.942Z,7.90
2019-02-20T09:11:02.527Z,7.91
2019-02-20T09:13:35.378Z,7.92
2019-02-20T09:16:04.213Z,7.95
2019-02-20T09:18:38.796Z,8.08
2019-02-20T09:21:15.129Z,7.96
2019-02-20T09:23:50.305Z,7.95
2019-02-20T09:26:21.050Z,8.00
2019-02-20T09:28:50.742Z,8.09
2019-02-20T09:31:22.396Z,8.17
2019-02-20T09:33:53.170Z,8.17
2019-02-20T09:36:27.174Z,8.17
2019-02-20T09:38:56.096Z,8.26
2019-02-20T09:41:24.950Z,8.28
2019-02-20T09:43:55.481Z,8.30
2019-02-20T09:46:25.911Z,8.18
2019-02-20T09:48:56.131Z,8.26
2019-02-20T09:51:26.676Z,8.32
2019-02-20T09:53:58.907Z,8.32
2019-02-20T09:56:29.473Z,8.31
2019-02-20T09:58:59.620Z,8.42
2019-02-20T10:01:29.900Z,8.39
2019-02-20T10:03:59.642Z,8.57
2019-02-20T10:06:28.780Z,8.55
2019-02-20T10:09:00.665Z,8.78
2019-02-20T10:11:30.182Z,8.78
2019-02-20T10:14:00.826Z,8.77
2019-02-20T10:16:32.668Z,8.94
2019-02-20T10:19:02.565Z,9.03
2019-02-20T10:21:34.695Z,9.06
2019-02-20T10:24:06.290Z,9.03
2019-02-20T10:26:36.999Z,9.04
2019-02-20T10:29:09.311Z,9.09
2019-02-20T10:31:40.050Z,9.16
2019-02-20T10:34:08.943Z,9.33
2019-02-20T10:36:37.747Z,9.38
2019-02-20T10:39:06.915Z,9.47
2019-02-20T10:41:40.371Z,9.54
2019-02-20T10:44:12.597Z,9.64
2019-02-20T10:46:44.175Z,9.55
2019-02-20T10:49:14.672Z,9.67
2019-02-20T10:51:44.900Z,9.81
2019-02-20T10:54:13.443Z,9.77
2019-02-20T10:56:42.007Z,9.77
2019-02-20T10:59:12.578Z,9.71
2019-02-20T11:01:41.522Z,9.64
2019-02-20T11:04:10.240Z,9.53
2019-02-20T11:06:44.221Z,9.61
2019-02-20T11:09:14.672Z,9.69
2019-02-20T11:11:44.564Z,9.90
2019-02-20T11:14:15.229Z,10.11
2019-02-20T11:16:45.552Z,10.08
2019-02-20T11:19:17.502Z,10.11
2019-02-20T11:21:50.657Z,10.32
2019-02-20T11:24:24.882Z,10.32
2019-02-20T11:26:55.597Z,10.30
2019-02-20T11:29:26.135Z,10.34
2019-02-20T11:31:58.342Z,10.32
2019-02-20T11:34:29.041Z,10.34
2019-02-20T11:36:59.584Z,10.30
2019-02-20T11:39:37.703Z,10.36
2019-02-20T11:42:04.858Z,10.40
2019-02-20T11:44:33.411Z,10.42
2019-02-20T11:47:03.435Z,10.46
2019-02-20T11:49:34.134Z,10.34
2019-02-20T11:52:04.905Z,10.39
2019-02-20T11:54:35.428Z,10.39
2019-02-20T11:57:07.601Z,10.25
2019-02-20T11:59:38.517Z,10.44
2019-02-20T12:02:10.842Z,10.40
2019-02-20T12:04:39.568Z,10.30
2019-02-20T12:07:08.289Z,10.45
2019-02-20T12:09:38.809Z,10.38
2019-02-20T12:12:09.522Z,10.33
2019-02-20T12:14:40.414Z,10.44
2019-02-20T12:17:10.729Z,10.61
2019-02-20T12:19:40.831Z,10.34
2019-02-20T12:22:10.110Z,10.31
2019-02-20T12:24:38.657Z,10.33
2019-02-20T12:30:26.339Z,10.62
2019-02-20T12:32:56.868Z,10.72
2019-02-20T12:35:25.744Z,10.80
2019-02-20T12:37:54.451Z,10.69
2019-02-20T12:40:24.937Z,10.75
2019-02-20T12:42:53.892Z,10.63
2019-02-20T12:45:22.431Z,10.76
2019-02-20T12:47:53.671Z,10.71
2019-02-20T12:50:22.398Z,10.74
2019-02-20T12:52:51.313Z,10.75
2019-02-20T12:55:20.019Z,10.72
2019-02-20T12:57:50.119Z,10.66
2019-02-20T13:00:19.964Z,10.78
2019-02-20T13:02:50.520Z,10.67
2019-02-20T13:05:21.529Z,10.66
2019-02-20T13:07:50.804Z,10.81
2019-02-20T13:10:22.430Z,10.77
2019-02-20T13:12:52.598Z,11.00
2019-02-20T13:15:21.827Z,10.99
2019-02-20T13:17:53.763Z,10.80
2019-02-20T13:20:22.591Z,10.85
2019-02-20T13:22:52.842Z,10.94
2019-02-20T13:25:23.726Z,11.06
2019-02-20T13:27:56.596Z,10.97
2019-02-20T13:30:28.201Z,11.05
2019-02-20T13:32:56.961Z,11.14
2019-02-20T13:35:27.753Z,11.02
2019-02-20T13:38:00.014Z,11.06
2019-02-20T13:40:28.917Z,11.16
2019-02-20T13:42:59.031Z,11.06
2019-02-20T13:45:33.173Z,11.04
2019-02-20T13:48:02.804Z,10.93
2019-02-20T13:50:32.083Z,10.96
2019-02-20T13:53:01.128Z,11.03
2019-02-20T13:55:34.522Z,11.01
2019-02-20T13:58:03.520Z,11.04
2019-02-20T14:00:33.814Z,11.05
2019-02-20T14:03:03.092Z,10.95
2019-02-20T14:05:33.393Z,10.89
2019-02-20T14:08:02.289Z,10.79
2019-02-20T14:10:33.612Z,10.82
2019-02-20T14:13:02.839Z,10.76
2019-02-20T14:15:33.390Z,10.82
2019-02-20T14:18:04.232Z,10.74
2019-02-20T14:20:34.593Z,10.86
2019-02-20T14:23:03.319Z,11.00
2019-02-20T14:25:36.432Z,11.13
2019-02-20T14:28:05.175Z,11.30
2019-02-20T14:30:33.693Z,11.22
2019-02-20T14:33:02.881Z,11.26
2019-02-20T14:35:31.762Z,11.32
2019-02-20T14:38:00.649Z,11.41
2019-02-20T14:40:32.442Z,11.53
2019-02-20T14:43:01.411Z,11.49
2019-02-20T14:45:34.832Z,11.54
2019-02-20T14:48:07.411Z,11.44
2019-02-20T14:50:35.975Z,11.44
2019-02-20T14:53:08.143Z,11.23
2019-02-20T14:55:41.697Z,11.30
2019-02-20T14:58:15.457Z,11.23
2019-02-20T15:00:45.773Z,10.99
2019-02-20T15:03:16.226Z,11.10
2019-02-20T15:05:48.008Z,11.05
2019-02-20T15:08:19.930Z,11.07
2019-02-20T15:10:50.409Z,11.08
2019-02-20T15:13:24.910Z,10.98
2019-02-20T15:15:54.845Z,10.92
2019-02-20T15:18:25.286Z,10.97
2019-02-20T15:20:56.146Z,10.96
2019-02-20T15:23:27.191Z,10.94
2019-02-20T15:25:58.123Z,10.91
2019-02-20T15:28:30.482Z,10.95
2019-02-20T15:31:02.979Z,10.92
2019-02-20T15:33:35.417Z,10.89
2019-02-20T15:36:04.117Z,10.86
2019-02-20T15:38:34.699Z,10.85
2019-02-20T15:41:05.520Z,10.84
2019-02-20T15:43:35.091Z,10.79
2019-02-20T15:46:05.785Z,10.73
2019-02-20T15:48:36.600Z,10.64
2019-02-20T15:51:09.880Z,10.65
2019-02-20T15:53:38.770Z,10.68
2019-02-20T15:56:09.651Z,10.68
2019-02-20T15:58:40.566Z,10.64
2019-02-20T16:01:11.535Z,10.62
2019-02-20T16:03:44.311Z,10.56
2019-02-20T16:06:15.338Z,10.49
2019-02-20T16:08:46.059Z,10.43
2019-02-20T16:11:16.473Z,10.39
2019-02-20T16:13:47.275Z,10.35
2019-02-20T16:16:19.283Z,10.26
2019-02-20T16:18:52.996Z,10.23
2019-02-20T16:21:26.904Z,10.14
2019-02-20T16:23:58.133Z,10.13
2019-02-20T16:26:31.475Z,10.06
2019-02-20T16:29:04.195Z,10.00
2019-02-20T16:31:35.004Z,9.91
2019-02-20T16:34:04.167Z,9.80
2019-02-20T16:36:37.817Z,9.74
2019-02-20T16:39:09.114Z,9.63
2019-02-20T16:41:39.663Z,9.53
2019-02-20T16:44:10.229Z,9.44
2019-02-20T16:46:39.486Z,9.42
2019-02-20T16:49:10.444Z,9.30
2019-02-20T16:51:39.557Z,9.24
2019-02-20T16:54:10.498Z,9.13
2019-02-20T16:56:39.045Z,9.03
2019-02-20T16:59:12.621Z,9.00
2019-02-20T17:01:43.783Z,8.92
2019-02-20T17:04:17.355Z,8.90
2019-02-20T17:06:46.089Z,8.85
2019-02-20T17:09:15.484Z,8.74
2019-02-20T17:11:45.437Z,8.65
2019-02-20T17:14:15.390Z,8.63
2019-02-20T17:16:44.508Z,8.52
2019-02-20T17:19:13.229Z,8.43
2019-02-20T17:21:46.055Z,8.37
2019-02-20T17:24:15.367Z,8.29
2019-02-20T17:26:43.932Z,8.23
2019-02-20T17:29:14.019Z,8.08
2019-02-20T17:31:45.121Z,8.03
2019-02-20T17:34:14.242Z,8.03
2019-02-20T17:36:44.473Z,8.02
2019-02-20T17:39:13.625Z,8.06
2019-02-20T17:41:42.369Z,7.96
2019-02-20T17:44:12.589Z,7.93
2019-02-20T17:46:42.809Z,7.93
2019-02-20T17:49:11.750Z,7.91
2019-02-20T17:51:40.651Z,7.88
2019-02-20T17:54:09.372Z,7.79
2019-02-20T17:56:37.959Z,7.79
2019-02-20T17:59:06.828Z,7.76
2019-02-20T18:01:37.407Z,7.73
2019-02-20T18:04:07.326Z,7.70
2019-02-20T18:06:36.451Z,7.69
2019-02-20T18:09:09.765Z,7.66
2019-02-20T18:11:40.415Z,7.64
2019-02-20T18:14:09.909Z,7.64
2019-02-20T18:16:40.514Z,7.69
2019-02-20T18:19:09.251Z,7.68
2019-02-20T18:21:39.116Z,7.70
2019-02-20T18:24:08.119Z,7.68
2019-02-20T18:26:36.665Z,7.66
2019-02-20T18:29:05.205Z,7.64
2019-02-20T18:31:38.239Z,7.59
2019-02-20T18:34:06.652Z,7.46
2019-02-20T18:36:37.313Z,7.46
2019-02-20T18:39:08.301Z,7.43
2019-02-20T18:41:37.914Z,7.33
2019-02-20T18:44:06.494Z,7.33
2019-02-20T18:46:35.399Z,7.30
2019-02-20T18:49:04.643Z,7.31
2019-02-20T18:51:35.046Z,7.40
2019-02-20T18:54:03.638Z,7.37
2019-02-20T18:56:34.150Z,7.39
2019-02-20T18:59:03.319Z,7.40
2019-02-20T19:01:34.216Z,7.39
2019-02-20T19:04:02.804Z,7.44
2019-02-20T19:06:35.931Z,7.37
2019-02-20T19:09:20.400Z,7.34
2019-02-20T19:12:21.683Z,7.32
2019-02-20T19:15:26.918Z,7.30
2019-02-20T19:18:20.249Z,7.28
2019-02-20T19:21:12.882Z,7.25
2019-02-20T19:24:33.983Z,7.26
2019-02-20T19:27:45.740Z,7.35
2019-02-20T19:30:50.901Z,7.32
2019-02-20T19:33:53.329Z,7.27
2019-02-20T19:36:59.270Z,7.26
2019-02-20T19:39:40.898Z,7.23
2019-02-20T19:42:35.160Z,7.13
2019-02-20T19:45:20.766Z,7.16
2019-02-20T19:48:26.681Z,7.11
2019-02-20T19:51:41.190Z,7.11
2019-02-20T19:54:28.996Z,7.03
2019-02-20T19:57:24.699Z,7.00
2019-02-20T20:00:16.971Z,6.96
2019-02-20T20:03:30.964Z,6.89
2019-02-20T20:06:40.779Z,6.85
2019-02-20T20:09:29.603Z,6.74
2019-02-20T20:12:22.451Z,6.65
2019-02-20T20:15:05.797Z,6.62
2019-02-20T20:18:15.695Z,6.60
2019-02-20T20:21:14.420Z,6.55
2019-02-20T20:24:19.017Z,6.51
2019-02-20T20:27:07.548Z,6.48
2019-02-20T20:30:04.710Z,6.46
2019-02-20T20:33:06.520Z,6.47
2019-02-20T20:36:08.387Z,6.39
2019-02-20T20:39:36.447Z,6.38
2019-02-20T20:42:48.482Z,6.33
2019-02-20T20:46:07.173Z,6.32
2019-02-20T20:49:09.747Z,6.32
2019-02-20T20:52:15.703Z,6.30
2019-02-20T20:55:19.498Z,6.33
2019-02-20T20:58:15.261Z,6.30
2019-02-20T21:01:25.336Z,6.21
2019-02-20T21:04:15.002Z,6.14
2019-02-20T21:06:56.131Z,6.07
2019-02-20T21:09:53.343Z,6.02
2019-02-20T21:12:48.444Z,5.99
2019-02-20T21:15:53.460Z,5.92
2019-02-20T21:18:44.940Z,5.85
2019-02-20T21:21:31.355Z,5.82
2019-02-20T21:24:39.858Z,5.78
2019-02-20T21:27:55.769Z,5.77
2019-02-20T21:31:15.170Z,5.71
2019-02-20T21:34:35.855Z,5.70
2019-02-20T21:37:37.695Z,5.73
2019-02-20T21:40:31.266Z,5.75
2019-02-20T21:43:14.403Z,5.75
2019-02-20T21:46:15.152Z,5.74
2019-02-20T21:49:28.880Z,5.74
2019-02-20T21:52:34.956Z,5.68
2019-02-20T21:55:31.358Z,5.63
2019-02-20T21:58:22.786Z,5.56
2019-02-20T22:01:27.868Z,5.55
2019-02-20T22:04:18.433Z,5.52
2019-02-20T22:07:32.895Z,5.54
2019-02-20T22:10:24.126Z,5.56
2019-02-20T22:13:27.703Z,5.56
2019-02-20T22:16:15.357Z,5.46
2019-02-20T22:19:16.658Z,5.40
2019-02-20T22:22:10.439Z,5.40
2019-02-20T22:25:16.084Z,5.40
2019-02-20T22:28:19.339Z,5.38
2019-02-20T22:31:29.159Z,5.37
2019-02-20T22:34:19.119Z,5.36
2019-02-20T22:37:31.375Z,5.31
2019-02-20T22:40:33.412Z,5.24
2019-02-20T22:43:40.695Z,5.17
2019-02-20T22:46:22.200Z,5.13
2019-02-20T22:49:01.780Z,5.14
2019-02-20T22:52:08.943Z,5.12
2019-02-20T22:55:23.858Z,5.06
2019-02-20T22:58:03.188Z,4.97
2019-02-20T23:01:12.594Z,4.96
2019-02-20T23:04:21.747Z,4.92
2019-02-20T23:07:30.448Z,4.93
2019-02-20T23:11:06.858Z,4.85
2019-02-20T23:14:19.241Z,4.83
2019-02-20T23:16:50.637Z,4.76
2019-02-20T23:19:19.523Z,4.76
2019-02-20T23:21:51.263Z,4.72
2019-02-20T23:24:23.702Z,4.65
2019-02-20T23:26:57.085Z,4.66
2019-02-20T23:29:26.130Z,4.71
2019-02-20T23:31:54.746Z,4.68
2019-02-20T23:34:24.794Z,4.63
2019-02-20T23:36:55.143Z,4.59
2019-02-20T23:39:23.696Z,4.57
2019-02-20T23:41:52.304Z,4.57
2019-02-20T23:44:20.914Z,4.62
2019-02-20T23:46:51.049Z,4.60
2019-02-20T23:49:19.628Z,4.63
2019-02-20T23:51:51.869Z,4.70
2019-02-20T23:54:23.343Z,4.72
2019-02-20T23:56:53.611Z,4.77
2019-02-20T23:59:25.261Z,4.78
